sensor_id;sensor_type;location;lat;lon;timestamp;P1;durP1;ratioP1;P2;durP2;ratioP2
53835;SDS011;39737;43.334;21.936;2022-08-03T00:01:17;3.22;;;1.50;;
53835;SDS011;39737;43.334;21.936;2022-08-03T00:04:04;1.98;;;1.13;;
53835;SDS011;39737;43.334;21.936;2022-08-03T00:06:51;1.48;;;1.38;;
53835;SDS011;39737;43.334;21.936;2022-08-03T00:09:37;2.08;;;1.48;;
53835;SDS011;39737;43.334;21.936;2022-08-03T00:12:23;2.47;;;1.45;;
53835;SDS011;39737;43.334;21.936;2022-08-03T00:15:10;1.70;;;1.30;;
53835;SDS011;39737;43.334;21.936;2022-08-03T00:18:01;1.77;;;1.40;;
53835;SDS011;39737;43.334;21.936;2022-08-03T00:20:47;2.13;;;1.55;;
53835;SDS011;39737;43.334;21.936;2022-08-03T00:23:34;1.75;;;1.17;;
53835;SDS011;39737;43.334;21.936;2022-08-03T00:26:36;2.60;;;1.67;;
53835;SDS011;39737;43.334;21.936;2022-08-03T00:29:23;1.95;;;1.50;;
53835;SDS011;39737;43.334;21.936;2022-08-03T00:32:09;3.15;;;1.63;;
53835;SDS011;39737;43.334;21.936;2022-08-03T00:34:56;2.05;;;1.58;;
53835;SDS011;39737;43.334;21.936;2022-08-03T00:37:43;2.22;;;1.45;;
53835;SDS011;39737;43.334;21.936;2022-08-03T00:40:30;1.92;;;1.50;;
53835;SDS011;39737;43.334;21.936;2022-08-03T00:43:16;1.55;;;1.45;;
53835;SDS011;39737;43.334;21.936;2022-08-03T00:46:03;2.40;;;1.63;;
53835;SDS011;39737;43.334;21.936;2022-08-03T00:48:49;1.58;;;1.48;;
53835;SDS011;39737;43.334;21.936;2022-08-03T00:51:35;3.78;;;1.55;;
53835;SDS011;39737;43.334;21.936;2022-08-03T00:54:21;3.53;;;1.70;;
53835;SDS011;39737;43.334;21.936;2022-08-03T00:57:08;1.75;;;1.58;;
53835;SDS011;39737;43.334;21.936;2022-08-03T00:59:54;3.05;;;1.50;;
53835;SDS011;39737;43.334;21.936;2022-08-03T01:02:41;1.50;;;1.40;;
53835;SDS011;39737;43.334;21.936;2022-08-03T01:05:27;2.63;;;1.95;;
53835;SDS011;39737;43.334;21.936;2022-08-03T01:08:21;1.48;;;1.38;;
53835;SDS011;39737;43.334;21.936;2022-08-03T01:11:14;3.38;;;1.50;;
53835;SDS011;39737;43.334;21.936;2022-08-03T01:19:55;1.70;;;1.40;;
53835;SDS011;39737;43.334;21.936;2022-08-03T01:22:57;2.78;;;1.33;;
53835;SDS011;39737;43.334;21.936;2022-08-03T01:25:58;2.20;;;1.15;;
53835;SDS011;39737;43.334;21.936;2022-08-03T01:32:00;2.05;;;1.48;;
53835;SDS011;39737;43.334;21.936;2022-08-03T01:35:12;1.63;;;1.23;;
53835;SDS011;39737;43.334;21.936;2022-08-03T01:38:02;1.25;;;1.13;;
53835;SDS011;39737;43.334;21.936;2022-08-03T01:40:49;2.33;;;1.42;;
53835;SDS011;39737;43.334;21.936;2022-08-03T01:43:39;3.00;;;1.48;;
53835;SDS011;39737;43.334;21.936;2022-08-03T01:46:47;1.65;;;1.52;;
53835;SDS011;39737;43.334;21.936;2022-08-03T01:49:36;1.48;;;1.38;;
53835;SDS011;39737;43.334;21.936;2022-08-03T01:52:23;2.75;;;2.08;;
53835;SDS011;39737;43.334;21.936;2022-08-03T01:55:10;1.70;;;1.40;;
53835;SDS011;39737;43.334;21.936;2022-08-03T01:57:57;1.73;;;1.50;;
53835;SDS011;39737;43.334;21.936;2022-08-03T02:00:51;1.95;;;1.75;;
53835;SDS011;39737;43.334;21.936;2022-08-03T02:03:43;1.38;;;1.27;;
53835;SDS011;39737;43.334;21.936;2022-08-03T02:06:46;1.48;;;1.38;;
53835;SDS011;39737;43.334;21.936;2022-08-03T02:09:48;1.92;;;1.50;;
53835;SDS011;39737;43.334;21.936;2022-08-03T02:12:35;1.77;;;1.33;;
53835;SDS011;39737;43.334;21.936;2022-08-03T02:15:23;2.00;;;1.80;;
53835;SDS011;39737;43.334;21.936;2022-08-03T02:18:10;1.40;;;1.30;;
53835;SDS011;39737;43.334;21.936;2022-08-03T02:20:57;3.42;;;1.55;;
53835;SDS011;39737;43.334;21.936;2022-08-03T02:23:44;1.60;;;1.50;;
53835;SDS011;39737;43.334;21.936;2022-08-03T02:26:30;1.52;;;1.40;;
53835;SDS011;39737;43.334;21.936;2022-08-03T02:29:20;1.75;;;1.40;;
53835;SDS011;39737;43.334;21.936;2022-08-03T02:32:28;2.65;;;1.58;;
53835;SDS011;39737;43.334;21.936;2022-08-03T02:35:16;3.05;;;1.80;;
53835;SDS011;39737;43.334;21.936;2022-08-03T02:38:04;1.65;;;1.55;;
53835;SDS011;39737;43.334;21.936;2022-08-03T02:40:52;2.15;;;1.73;;
53835;SDS011;39737;43.334;21.936;2022-08-03T02:43:40;3.72;;;1.73;;
53835;SDS011;39737;43.334;21.936;2022-08-03T02:46:47;1.33;;;1.23;;
53835;SDS011;39737;43.334;21.936;2022-08-03T02:49:34;1.60;;;1.50;;
53835;SDS011;39737;43.334;21.936;2022-08-03T02:52:36;2.83;;;1.50;;
53835;SDS011;39737;43.334;21.936;2022-08-03T02:55:23;1.58;;;1.48;;
53835;SDS011;39737;43.334;21.936;2022-08-03T02:58:11;1.95;;;1.73;;
53835;SDS011;39737;43.334;21.936;2022-08-03T03:00:58;3.35;;;2.35;;
53835;SDS011;39737;43.334;21.936;2022-08-03T03:03:45;3.95;;;1.95;;
53835;SDS011;39737;43.334;21.936;2022-08-03T03:06:32;2.03;;;1.55;;
53835;SDS011;39737;43.334;21.936;2022-08-03T03:09:21;1.92;;;1.70;;
53835;SDS011;39737;43.334;21.936;2022-08-03T03:12:13;1.77;;;1.67;;
53835;SDS011;39737;43.334;21.936;2022-08-03T03:15:00;3.22;;;1.60;;
53835;SDS011;39737;43.334;21.936;2022-08-03T03:17:47;2.00;;;1.55;;
53835;SDS011;39737;43.334;21.936;2022-08-03T03:20:35;5.95;;;1.88;;
53835;SDS011;39737;43.334;21.936;2022-08-03T03:23:22;2.45;;;1.42;;
53835;SDS011;39737;43.334;21.936;2022-08-03T03:26:09;3.65;;;2.03;;
53835;SDS011;39737;43.334;21.936;2022-08-03T03:28:58;3.05;;;2.22;;
53835;SDS011;39737;43.334;21.936;2022-08-03T03:31:44;3.95;;;1.80;;
53835;SDS011;39737;43.334;21.936;2022-08-03T03:34:30;2.15;;;1.60;;
53835;SDS011;39737;43.334;21.936;2022-08-03T03:37:16;3.75;;;1.70;;
53835;SDS011;39737;43.334;21.936;2022-08-03T03:40:06;2.67;;;2.35;;
53835;SDS011;39737;43.334;21.936;2022-08-03T03:42:54;1.77;;;1.67;;
53835;SDS011;39737;43.334;21.936;2022-08-03T03:45:40;3.50;;;1.90;;
53835;SDS011;39737;43.334;21.936;2022-08-03T03:48:29;2.15;;;1.95;;
53835;SDS011;39737;43.334;21.936;2022-08-03T03:51:16;4.10;;;1.88;;
53835;SDS011;39737;43.334;21.936;2022-08-03T03:54:03;2.42;;;2.17;;
53835;SDS011;39737;43.334;21.936;2022-08-03T03:56:51;2.42;;;1.92;;
53835;SDS011;39737;43.334;21.936;2022-08-03T03:59:38;3.08;;;1.85;;
53835;SDS011;39737;43.334;21.936;2022-08-03T04:02:24;2.03;;;1.83;;
53835;SDS011;39737;43.334;21.936;2022-08-03T04:05:10;3.15;;;2.10;;
53835;SDS011;39737;43.334;21.936;2022-08-03T04:08:16;2.95;;;2.20;;
53835;SDS011;39737;43.334;21.936;2022-08-03T04:11:23;2.55;;;1.95;;
53835;SDS011;39737;43.334;21.936;2022-08-03T04:14:35;7.15;;;2.28;;
53835;SDS011;39737;43.334;21.936;2022-08-03T04:17:20;2.40;;;1.50;;
53835;SDS011;39737;43.334;21.936;2022-08-03T04:20:08;2.78;;;1.67;;
53835;SDS011;39737;43.334;21.936;2022-08-03T04:22:55;5.18;;;2.05;;
53835;SDS011;39737;43.334;21.936;2022-08-03T04:25:45;4.18;;;1.63;;
53835;SDS011;39737;43.334;21.936;2022-08-03T04:28:32;3.08;;;1.80;;
53835;SDS011;39737;43.334;21.936;2022-08-03T04:31:20;3.17;;;2.28;;
53835;SDS011;39737;43.334;21.936;2022-08-03T04:34:06;4.53;;;2.42;;
53835;SDS011;39737;43.334;21.936;2022-08-03T04:36:56;2.45;;;2.00;;
53835;SDS011;39737;43.334;21.936;2022-08-03T04:39:42;5.85;;;2.05;;
53835;SDS011;39737;43.334;21.936;2022-08-03T04:42:29;2.63;;;1.95;;
53835;SDS011;39737;43.334;21.936;2022-08-03T04:45:16;6.28;;;2.22;;
53835;SDS011;39737;43.334;21.936;2022-08-03T04:48:03;2.08;;;1.92;;
53835;SDS011;39737;43.334;21.936;2022-08-03T04:50:50;2.10;;;1.70;;
53835;SDS011;39737;43.334;21.936;2022-08-03T04:53:36;2.10;;;1.90;;
53835;SDS011;39737;43.334;21.936;2022-08-03T04:56:42;3.03;;;2.00;;
53835;SDS011;39737;43.334;21.936;2022-08-03T04:59:28;4.35;;;2.28;;
53835;SDS011;39737;43.334;21.936;2022-08-03T05:02:14;5.55;;;1.85;;
53835;SDS011;39737;43.334;21.936;2022-08-03T05:05:01;2.05;;;1.83;;
53835;SDS011;39737;43.334;21.936;2022-08-03T05:07:47;5.45;;;1.52;;
53835;SDS011;39737;43.334;21.936;2022-08-03T05:10:35;2.17;;;1.90;;
53835;SDS011;39737;43.334;21.936;2022-08-03T05:13:21;2.10;;;1.90;;
53835;SDS011;39737;43.334;21.936;2022-08-03T05:16:08;4.18;;;1.60;;
53835;SDS011;39737;43.334;21.936;2022-08-03T05:18:54;2.83;;;2.05;;
53835;SDS011;39737;43.334;21.936;2022-08-03T05:21:40;1.88;;;1.70;;
53835;SDS011;39737;43.334;21.936;2022-08-03T05:24:38;3.28;;;2.10;;
53835;SDS011;39737;43.334;21.936;2022-08-03T05:27:24;3.38;;;2.10;;
53835;SDS011;39737;43.334;21.936;2022-08-03T05:30:11;4.47;;;1.70;;
53835;SDS011;39737;43.334;21.936;2022-08-03T05:33:17;3.17;;;2.42;;
53835;SDS011;39737;43.334;21.936;2022-08-03T05:36:04;3.38;;;2.40;;
53835;SDS011;39737;43.334;21.936;2022-08-03T05:38:50;4.25;;;2.33;;
53835;SDS011;39737;43.334;21.936;2022-08-03T05:41:36;3.20;;;1.90;;
53835;SDS011;39737;43.334;21.936;2022-08-03T05:44:23;1.67;;;1.58;;
53835;SDS011;39737;43.334;21.936;2022-08-03T05:47:10;3.70;;;2.10;;
53835;SDS011;39737;43.334;21.936;2022-08-03T05:49:56;4.72;;;2.97;;
53835;SDS011;39737;43.334;21.936;2022-08-03T05:52:43;2.30;;;1.88;;
53835;SDS011;39737;43.334;21.936;2022-08-03T05:55:30;3.40;;;2.40;;
53835;SDS011;39737;43.334;21.936;2022-08-03T05:58:16;4.95;;;2.40;;
53835;SDS011;39737;43.334;21.936;2022-08-03T06:01:03;2.47;;;1.90;;
53835;SDS011;39737;43.334;21.936;2022-08-03T06:03:50;2.45;;;1.55;;
53835;SDS011;39737;43.334;21.936;2022-08-03T06:06:37;2.70;;;2.10;;
53835;SDS011;39737;43.334;21.936;2022-08-03T06:09:23;1.73;;;1.60;;
53835;SDS011;39737;43.334;21.936;2022-08-03T06:12:30;2.22;;;2.03;;
53835;SDS011;39737;43.334;21.936;2022-08-03T06:15:17;2.05;;;1.83;;
53835;SDS011;39737;43.334;21.936;2022-08-03T06:18:03;3.70;;;2.10;;
53835;SDS011;39737;43.334;21.936;2022-08-03T06:20:50;3.63;;;2.30;;
53835;SDS011;39737;43.334;21.936;2022-08-03T06:23:55;5.30;;;2.50;;
53835;SDS011;39737;43.334;21.936;2022-08-03T06:26:42;4.70;;;2.50;;
53835;SDS011;39737;43.334;21.936;2022-08-03T06:29:28;3.00;;;1.90;;
53835;SDS011;39737;43.334;21.936;2022-08-03T06:32:14;2.45;;;2.00;;
53835;SDS011;39737;43.334;21.936;2022-08-03T06:35:02;4.72;;;2.70;;
53835;SDS011;39737;43.334;21.936;2022-08-03T06:37:49;8.48;;;2.15;;
53835;SDS011;39737;43.334;21.936;2022-08-03T06:40:36;3.70;;;2.63;;
53835;SDS011;39737;43.334;21.936;2022-08-03T06:43:45;5.88;;;2.00;;
53835;SDS011;39737;43.334;21.936;2022-08-03T06:46:49;5.35;;;2.50;;
53835;SDS011;39737;43.334;21.936;2022-08-03T06:49:36;6.85;;;2.20;;
53835;SDS011;39737;43.334;21.936;2022-08-03T06:52:22;2.42;;;1.70;;
53835;SDS011;39737;43.334;21.936;2022-08-03T06:55:22;4.97;;;2.53;;
53835;SDS011;39737;43.334;21.936;2022-08-03T06:58:08;3.42;;;2.60;;
53835;SDS011;39737;43.334;21.936;2022-08-03T07:00:55;1.98;;;1.77;;
53835;SDS011;39737;43.334;21.936;2022-08-03T07:03:42;2.22;;;1.95;;
53835;SDS011;39737;43.334;21.936;2022-08-03T07:06:37;2.90;;;1.95;;
53835;SDS011;39737;43.334;21.936;2022-08-03T07:09:24;2.67;;;2.00;;
53835;SDS011;39737;43.334;21.936;2022-08-03T07:12:11;3.03;;;2.17;;
53835;SDS011;39737;43.334;21.936;2022-08-03T07:14:59;3.45;;;2.42;;
53835;SDS011;39737;43.334;21.936;2022-08-03T07:17:49;4.28;;;2.03;;
53835;SDS011;39737;43.334;21.936;2022-08-03T07:20:36;2.30;;;2.10;;
53835;SDS011;39737;43.334;21.936;2022-08-03T07:23:22;2.55;;;1.92;;
53835;SDS011;39737;43.334;21.936;2022-08-03T07:26:09;3.75;;;2.40;;
53835;SDS011;39737;43.334;21.936;2022-08-03T07:28:56;1.98;;;1.77;;
53835;SDS011;39737;43.334;21.936;2022-08-03T07:31:42;3.35;;;2.45;;
53835;SDS011;39737;43.334;21.936;2022-08-03T07:34:28;3.22;;;2.10;;
53835;SDS011;39737;43.334;21.936;2022-08-03T07:37:15;4.20;;;2.05;;
53835;SDS011;39737;43.334;21.936;2022-08-03T07:40:01;2.80;;;1.88;;
53835;SDS011;39737;43.334;21.936;2022-08-03T07:42:52;2.07;;;1.87;;
53835;SDS011;39737;43.334;21.936;2022-08-03T07:45:38;3.88;;;1.60;;
53835;SDS011;39737;43.334;21.936;2022-08-03T07:48:24;4.40;;;2.03;;
53835;SDS011;39737;43.334;21.936;2022-08-03T07:51:10;7.20;;;2.30;;
53835;SDS011;39737;43.334;21.936;2022-08-03T07:53:57;2.45;;;1.80;;
53835;SDS011;39737;43.334;21.936;2022-08-03T07:56:44;4.35;;;2.15;;
53835;SDS011;39737;43.334;21.936;2022-08-03T07:59:31;1.48;;;1.13;;
53835;SDS011;39737;43.334;21.936;2022-08-03T08:02:38;6.55;;;1.60;;
53835;SDS011;39737;43.334;21.936;2022-08-03T08:05:24;2.15;;;1.63;;
53835;SDS011;39737;43.334;21.936;2022-08-03T08:08:10;2.00;;;1.40;;
53835;SDS011;39737;43.334;21.936;2022-08-03T08:10:56;5.18;;;2.25;;
53835;SDS011;39737;43.334;21.936;2022-08-03T08:13:43;1.40;;;1.20;;
53835;SDS011;39737;43.334;21.936;2022-08-03T08:16:30;9.85;;;1.30;;
53835;SDS011;39737;43.334;21.936;2022-08-03T08:19:35;1.40;;;1.10;;
53835;SDS011;39737;43.334;21.936;2022-08-03T08:22:31;1.40;;;1.20;;
53835;SDS011;39737;43.334;21.936;2022-08-03T08:25:23;1.85;;;1.55;;
53835;SDS011;39737;43.334;21.936;2022-08-03T08:28:16;1.83;;;1.50;;
53835;SDS011;39737;43.334;21.936;2022-08-03T08:31:17;1.75;;;1.30;;
53835;SDS011;39737;43.334;21.936;2022-08-03T08:34:04;1.80;;;1.13;;
53835;SDS011;39737;43.334;21.936;2022-08-03T08:36:56;3.03;;;1.50;;
53835;SDS011;39737;43.334;21.936;2022-08-03T08:39:49;1.45;;;1.05;;
53835;SDS011;39737;43.334;21.936;2022-08-03T08:42:54;1.73;;;1.52;;
53835;SDS011;39737;43.334;21.936;2022-08-03T08:45:43;2.38;;;1.60;;
53835;SDS011;39737;43.334;21.936;2022-08-03T08:48:40;1.35;;;1.25;;
53835;SDS011;39737;43.334;21.936;2022-08-03T08:51:29;1.45;;;1.20;;
53835;SDS011;39737;43.334;21.936;2022-08-03T08:54:39;1.45;;;1.17;;
53835;SDS011;39737;43.334;21.936;2022-08-03T08:57:32;3.70;;;1.30;;
53835;SDS011;39737;43.334;21.936;2022-08-03T09:00:31;1.52;;;1.42;;
53835;SDS011;39737;43.334;21.936;2022-08-03T09:03:18;1.42;;;1.27;;
53835;SDS011;39737;43.334;21.936;2022-08-03T09:06:30;3.03;;;1.58;;
53835;SDS011;39737;43.334;21.936;2022-08-03T09:09:21;2.03;;;1.05;;
53835;SDS011;39737;43.334;21.936;2022-08-03T09:12:30;1.85;;;1.15;;
53835;SDS011;39737;43.334;21.936;2022-08-03T09:15:30;2.30;;;1.45;;
53835;SDS011;39737;43.334;21.936;2022-08-03T09:18:27;1.45;;;1.25;;
53835;SDS011;39737;43.334;21.936;2022-08-03T09:21:26;1.85;;;1.30;;
53835;SDS011;39737;43.334;21.936;2022-08-03T09:24:20;1.15;;;1.05;;
53835;SDS011;39737;43.334;21.936;2022-08-03T09:27:43;1.17;;;1.02;;
53835;SDS011;39737;43.334;21.936;2022-08-03T09:30:34;6.82;;;1.70;;
53835;SDS011;39737;43.334;21.936;2022-08-03T09:33:21;1.80;;;1.42;;
53835;SDS011;39737;43.334;21.936;2022-08-03T09:36:36;2.55;;;1.55;;
53835;SDS011;39737;43.334;21.936;2022-08-03T09:39:23;7.63;;;1.60;;
53835;SDS011;39737;43.334;21.936;2022-08-03T09:42:26;2.10;;;1.35;;
53835;SDS011;39737;43.334;21.936;2022-08-03T09:45:24;5.22;;;1.50;;
53835;SDS011;39737;43.334;21.936;2022-08-03T09:48:24;0.90;;;0.90;;
53835;SDS011;39737;43.334;21.936;2022-08-03T09:51:10;2.80;;;1.25;;
53835;SDS011;39737;43.334;21.936;2022-08-03T09:54:25;6.22;;;1.23;;
53835;SDS011;39737;43.334;21.936;2022-08-03T09:57:19;1.52;;;1.20;;
53835;SDS011;39737;43.334;21.936;2022-08-03T10:04:00;1.10;;;1.00;;
53835;SDS011;39737;43.334;21.936;2022-08-03T10:07:24;1.50;;;1.40;;
53835;SDS011;39737;43.334;21.936;2022-08-03T10:15:00;1.30;;;1.10;;
53835;SDS011;39737;43.334;21.936;2022-08-03T10:17:47;1.40;;;1.30;;
53835;SDS011;39737;43.334;21.936;2022-08-03T10:20:40;1.88;;;1.40;;
53835;SDS011;39737;43.334;21.936;2022-08-03T10:23:33;1.50;;;1.17;;
53835;SDS011;39737;43.334;21.936;2022-08-03T10:26:20;1.75;;;1.17;;
53835;SDS011;39737;43.334;21.936;2022-08-03T10:29:10;1.48;;;1.13;;
53835;SDS011;39737;43.334;21.936;2022-08-03T10:31:58;1.42;;;1.10;;
53835;SDS011;39737;43.334;21.936;2022-08-03T10:34:46;3.20;;;1.20;;
53835;SDS011;39737;43.334;21.936;2022-08-03T10:37:53;1.17;;;0.88;;
53835;SDS011;39737;43.334;21.936;2022-08-03T10:40:42;0.90;;;0.90;;
53835;SDS011;39737;43.334;21.936;2022-08-03T10:43:52;1.42;;;1.20;;
53835;SDS011;39737;43.334;21.936;2022-08-03T10:46:40;5.47;;;0.93;;
53835;SDS011;39737;43.334;21.936;2022-08-03T10:49:30;1.27;;;0.93;;
53835;SDS011;39737;43.334;21.936;2022-08-03T10:52:20;2.60;;;1.23;;
53835;SDS011;39737;43.334;21.936;2022-08-03T10:55:31;6.75;;;1.35;;
53835;SDS011;39737;43.334;21.936;2022-08-03T11:01:59;2.40;;;1.00;;
53835;SDS011;39737;43.334;21.936;2022-08-03T11:04:46;3.10;;;1.08;;
53835;SDS011;39737;43.334;21.936;2022-08-03T11:07:32;0.65;;;0.65;;
53835;SDS011;39737;43.334;21.936;2022-08-03T11:10:28;0.77;;;0.77;;
53835;SDS011;39737;43.334;21.936;2022-08-03T11:13:15;2.17;;;1.25;;
53835;SDS011;39737;43.334;21.936;2022-08-03T11:16:17;0.82;;;0.80;;
53835;SDS011;39737;43.334;21.936;2022-08-03T11:19:08;4.07;;;1.27;;
53835;SDS011;39737;43.334;21.936;2022-08-03T11:21:55;1.40;;;1.15;;
53835;SDS011;39737;43.334;21.936;2022-08-03T11:24:55;1.00;;;0.75;;
53835;SDS011;39737;43.334;21.936;2022-08-03T11:27:42;2.10;;;1.23;;
53835;SDS011;39737;43.334;21.936;2022-08-03T11:30:28;2.13;;;1.00;;
53835;SDS011;39737;43.334;21.936;2022-08-03T11:33:27;1.08;;;0.70;;
53835;SDS011;39737;43.334;21.936;2022-08-03T11:36:13;1.38;;;1.00;;
53835;SDS011;39737;43.334;21.936;2022-08-03T11:39:18;5.20;;;1.13;;
53835;SDS011;39737;43.334;21.936;2022-08-03T11:45:09;2.47;;;0.90;;
53835;SDS011;39737;43.334;21.936;2022-08-03T11:47:56;1.55;;;0.60;;
53835;SDS011;39737;43.334;21.936;2022-08-03T11:50:45;1.77;;;0.85;;
53835;SDS011;39737;43.334;21.936;2022-08-03T11:53:31;2.72;;;0.80;;
53835;SDS011;39737;43.334;21.936;2022-08-03T11:56:26;1.52;;;0.70;;
53835;SDS011;39737;43.334;21.936;2022-08-03T11:59:13;0.50;;;0.50;;
53835;SDS011;39737;43.334;21.936;2022-08-03T12:02:10;1.15;;;0.90;;
53835;SDS011;39737;43.334;21.936;2022-08-03T12:04:57;1.60;;;0.90;;
53835;SDS011;39737;43.334;21.936;2022-08-03T12:07:45;0.90;;;0.68;;
53835;SDS011;39737;43.334;21.936;2022-08-03T12:10:50;1.92;;;0.63;;
53835;SDS011;39737;43.334;21.936;2022-08-03T12:13:41;1.58;;;0.57;;
53835;SDS011;39737;43.334;21.936;2022-08-03T12:16:47;1.17;;;0.57;;
53835;SDS011;39737;43.334;21.936;2022-08-03T12:19:43;1.15;;;0.60;;
53835;SDS011;39737;43.334;21.936;2022-08-03T12:22:36;1.08;;;0.50;;
53835;SDS011;39737;43.334;21.936;2022-08-03T12:25:25;0.52;;;0.52;;
53835;SDS011;39737;43.334;21.936;2022-08-03T12:28:25;0.73;;;0.55;;
53835;SDS011;39737;43.334;21.936;2022-08-03T12:31:22;0.70;;;0.68;;
53835;SDS011;39737;43.334;21.936;2022-08-03T12:34:08;1.35;;;0.57;;
53835;SDS011;39737;43.334;21.936;2022-08-03T12:36:54;1.25;;;0.90;;
53835;SDS011;39737;43.334;21.936;2022-08-03T12:39:41;0.60;;;0.60;;
53835;SDS011;39737;43.334;21.936;2022-08-03T12:42:51;1.25;;;0.85;;
53835;SDS011;39737;43.334;21.936;2022-08-03T12:45:38;0.60;;;0.60;;
53835;SDS011;39737;43.334;21.936;2022-08-03T12:48:24;0.98;;;0.70;;
53835;SDS011;39737;43.334;21.936;2022-08-03T12:51:12;0.40;;;0.40;;
53835;SDS011;39737;43.334;21.936;2022-08-03T12:53:58;0.57;;;0.55;;
53835;SDS011;39737;43.334;21.936;2022-08-03T12:59:43;1.45;;;0.85;;
53835;SDS011;39737;43.334;21.936;2022-08-03T13:02:39;0.80;;;0.80;;
53835;SDS011;39737;43.334;21.936;2022-08-03T13:05:53;0.50;;;0.50;;
53835;SDS011;39737;43.334;21.936;2022-08-03T13:08:39;1.27;;;0.70;;
53835;SDS011;39737;43.334;21.936;2022-08-03T13:11:26;0.73;;;0.50;;
53835;SDS011;39737;43.334;21.936;2022-08-03T13:14:32;0.50;;;0.50;;
53835;SDS011;39737;43.334;21.936;2022-08-03T13:17:18;0.85;;;0.60;;
53835;SDS011;39737;43.334;21.936;2022-08-03T13:20:08;2.70;;;0.70;;
53835;SDS011;39737;43.334;21.936;2022-08-03T13:22:55;0.38;;;0.38;;
53835;SDS011;39737;43.334;21.936;2022-08-03T13:25:45;1.00;;;0.60;;
53835;SDS011;39737;43.334;21.936;2022-08-03T13:28:41;0.63;;;0.50;;
53835;SDS011;39737;43.334;21.936;2022-08-03T13:31:27;2.10;;;0.70;;
53835;SDS011;39737;43.334;21.936;2022-08-03T13:34:13;0.63;;;0.63;;
53835;SDS011;39737;43.334;21.936;2022-08-03T13:36:59;0.60;;;0.60;;
53835;SDS011;39737;43.334;21.936;2022-08-03T13:39:53;0.52;;;0.50;;
53835;SDS011;39737;43.334;21.936;2022-08-03T13:42:44;0.98;;;0.77;;
53835;SDS011;39737;43.334;21.936;2022-08-03T13:45:31;0.30;;;0.30;;
53835;SDS011;39737;43.334;21.936;2022-08-03T13:48:17;0.43;;;0.43;;
53835;SDS011;39737;43.334;21.936;2022-08-03T13:51:22;0.55;;;0.55;;
53835;SDS011;39737;43.334;21.936;2022-08-03T13:54:08;1.00;;;0.55;;
53835;SDS011;39737;43.334;21.936;2022-08-03T13:56:54;5.68;;;0.90;;
53835;SDS011;39737;43.334;21.936;2022-08-03T14:00:01;1.17;;;0.65;;
53835;SDS011;39737;43.334;21.936;2022-08-03T14:02:50;0.38;;;0.30;;
53835;SDS011;39737;43.334;21.936;2022-08-03T14:05:36;1.52;;;0.65;;
53835;SDS011;39737;43.334;21.936;2022-08-03T14:08:23;1.40;;;0.70;;
53835;SDS011;39737;43.334;21.936;2022-08-03T14:11:09;0.75;;;0.52;;
53835;SDS011;39737;43.334;21.936;2022-08-03T14:13:55;0.57;;;0.55;;
53835;SDS011;39737;43.334;21.936;2022-08-03T14:16:42;0.50;;;0.50;;
53835;SDS011;39737;43.334;21.936;2022-08-03T14:19:29;1.52;;;0.90;;
53835;SDS011;39737;43.334;21.936;2022-08-03T14:22:16;1.40;;;0.88;;
53835;SDS011;39737;43.334;21.936;2022-08-03T14:25:02;0.63;;;0.50;;
53835;SDS011;39737;43.334;21.936;2022-08-03T14:27:48;0.60;;;0.50;;
53835;SDS011;39737;43.334;21.936;2022-08-03T14:30:53;0.50;;;0.50;;
53835;SDS011;39737;43.334;21.936;2022-08-03T14:33:41;3.40;;;1.20;;
53835;SDS011;39737;43.334;21.936;2022-08-03T14:36:26;2.65;;;0.60;;
53835;SDS011;39737;43.334;21.936;2022-08-03T14:39:13;3.40;;;0.75;;
53835;SDS011;39737;43.334;21.936;2022-08-03T14:41:59;0.47;;;0.47;;
53835;SDS011;39737;43.334;21.936;2022-08-03T14:44:45;0.50;;;0.50;;
53835;SDS011;39737;43.334;21.936;2022-08-03T14:47:31;0.98;;;0.50;;
53835;SDS011;39737;43.334;21.936;2022-08-03T14:50:38;0.88;;;0.50;;
53835;SDS011;39737;43.334;21.936;2022-08-03T14:53:31;0.68;;;0.60;;
53835;SDS011;39737;43.334;21.936;2022-08-03T14:56:19;0.80;;;0.70;;
53835;SDS011;39737;43.334;21.936;2022-08-03T14:59:05;1.23;;;0.63;;
53835;SDS011;39737;43.334;21.936;2022-08-03T15:01:51;0.50;;;0.50;;
53835;SDS011;39737;43.334;21.936;2022-08-03T15:04:52;1.50;;;0.45;;
53835;SDS011;39737;43.334;21.936;2022-08-03T15:07:38;1.73;;;0.75;;
53835;SDS011;39737;43.334;21.936;2022-08-03T15:10:25;0.65;;;0.65;;
53835;SDS011;39737;43.334;21.936;2022-08-03T15:13:25;2.00;;;1.05;;
53835;SDS011;39737;43.334;21.936;2022-08-03T15:16:30;1.42;;;1.08;;
53835;SDS011;39737;43.334;21.936;2022-08-03T15:19:16;0.55;;;0.45;;
53835;SDS011;39737;43.334;21.936;2022-08-03T15:22:22;1.55;;;0.75;;
53835;SDS011;39737;43.334;21.936;2022-08-03T15:25:10;0.80;;;0.80;;
53835;SDS011;39737;43.334;21.936;2022-08-03T15:28:20;1.27;;;0.80;;
53835;SDS011;39737;43.334;21.936;2022-08-03T15:31:22;1.55;;;0.60;;
53835;SDS011;39737;43.334;21.936;2022-08-03T15:34:07;0.95;;;0.75;;
53835;SDS011;39737;43.334;21.936;2022-08-03T15:36:54;2.75;;;1.05;;
53835;SDS011;39737;43.334;21.936;2022-08-03T15:39:40;0.88;;;0.70;;
53835;SDS011;39737;43.334;21.936;2022-08-03T15:42:45;1.02;;;0.80;;
53835;SDS011;39737;43.334;21.936;2022-08-03T15:45:31;1.52;;;0.60;;
53835;SDS011;39737;43.334;21.936;2022-08-03T15:48:20;0.80;;;0.60;;
53835;SDS011;39737;43.334;21.936;2022-08-03T15:51:11;0.50;;;0.50;;
53835;SDS011;39737;43.334;21.936;2022-08-03T15:53:57;1.17;;;0.60;;
53835;SDS011;39737;43.334;21.936;2022-08-03T15:56:43;0.82;;;0.60;;
53835;SDS011;39737;43.334;21.936;2022-08-03T15:59:30;1.30;;;0.73;;
53835;SDS011;39737;43.334;21.936;2022-08-03T16:02:16;1.80;;;0.60;;
53835;SDS011;39737;43.334;21.936;2022-08-03T16:05:03;6.00;;;1.13;;
53835;SDS011;39737;43.334;21.936;2022-08-03T16:07:49;2.25;;;0.90;;
53835;SDS011;39737;43.334;21.936;2022-08-03T16:10:48;1.73;;;0.68;;
53835;SDS011;39737;43.334;21.936;2022-08-03T16:13:36;0.60;;;0.60;;
53835;SDS011;39737;43.334;21.936;2022-08-03T16:16:43;1.08;;;0.82;;
53835;SDS011;39737;43.334;21.936;2022-08-03T16:19:30;0.65;;;0.65;;
53835;SDS011;39737;43.334;21.936;2022-08-03T16:22:16;4.35;;;0.85;;
53835;SDS011;39737;43.334;21.936;2022-08-03T16:25:04;19.13;;;1.40;;
53835;SDS011;39737;43.334;21.936;2022-08-03T16:28:00;1.17;;;0.80;;
53835;SDS011;39737;43.334;21.936;2022-08-03T16:30:57;0.63;;;0.63;;
53835;SDS011;39737;43.334;21.936;2022-08-03T16:33:43;0.82;;;0.80;;
53835;SDS011;39737;43.334;21.936;2022-08-03T16:36:30;1.45;;;1.20;;
53835;SDS011;39737;43.334;21.936;2022-08-03T16:39:19;3.03;;;0.90;;
53835;SDS011;39737;43.334;21.936;2022-08-03T16:42:05;3.38;;;1.23;;
53835;SDS011;39737;43.334;21.936;2022-08-03T16:44:51;1.65;;;1.20;;
53835;SDS011;39737;43.334;21.936;2022-08-03T16:47:38;1.10;;;1.00;;
53835;SDS011;39737;43.334;21.936;2022-08-03T16:50:24;1.10;;;0.90;;
53835;SDS011;39737;43.334;21.936;2022-08-03T16:53:11;0.80;;;0.80;;
53835;SDS011;39737;43.334;21.936;2022-08-03T16:56:01;2.47;;;1.05;;
53835;SDS011;39737;43.334;21.936;2022-08-03T16:58:54;1.27;;;0.90;;
53835;SDS011;39737;43.334;21.936;2022-08-03T17:01:40;1.45;;;1.20;;
53835;SDS011;39737;43.334;21.936;2022-08-03T17:04:32;2.58;;;1.17;;
53835;SDS011;39737;43.334;21.936;2022-08-03T17:07:18;1.10;;;1.00;;
53835;SDS011;39737;43.334;21.936;2022-08-03T17:10:06;0.90;;;0.90;;
53835;SDS011;39737;43.334;21.936;2022-08-03T17:12:57;1.77;;;1.10;;
53835;SDS011;39737;43.334;21.936;2022-08-03T17:15:43;1.08;;;0.88;;
53835;SDS011;39737;43.334;21.936;2022-08-03T17:18:56;1.45;;;1.05;;
53835;SDS011;39737;43.334;21.936;2022-08-03T17:24:48;1.88;;;1.48;;